Time;durP1;ratioP1;P1;durP2;ratioP2;P2;SDS_P1;SDS_P2;PMS_P1;PMS_P2;Temp;Humidity;BMP_temperature;BMP_pressure;BME280_temperature;BME280_humidity;BME280_pressure;Samples;Min_cycle;Max_cycle;Signal;HPM_P1;HPM_P2
2021/09/14 00:00:39;;;;;;;5.55;4.47;;;17.70;78.00;;;;;;5058798;28;20025;-74
2021/09/14 00:03:05;;;;;;;7.22;4.40;;;17.70;78.10;;;;;;5057121;28;20071;-74
2021/09/14 00:05:31;;;;;;;5.63;4.65;;;17.70;77.90;;;;;;5054649;28;20028;-74
2021/09/14 00:07:57;;;;;;;5.32;4.50;;;17.70;78.00;;;;;;5054465;28;20096;-74
2021/09/14 00:10:22;;;;;;;5.03;4.50;;;17.70;78.10;;;;;;5054344;28;20029;-74
2021/09/14 00:12:48;;;;;;;6.13;4.40;;;17.60;77.90;;;;;;5054152;28;20070;-73
2021/09/14 00:15:14;;;;;;;7.47;4.85;;;17.70;77.80;;;;;;5053946;28;20060;-74
2021/09/14 00:17:40;;;;;;;5.65;4.68;;;17.60;77.80;;;;;;5054066;28;20035;-74
2021/09/14 00:20:06;;;;;;;7.68;4.97;;;17.60;77.90;;;;;;5054430;28;20091;-73
2021/09/14 00:22:32;;;;;;;7.30;5.07;;;17.50;77.80;;;;;;5054186;28;20420;-73
2021/09/14 00:24:57;;;;;;;6.07;4.95;;;17.50;78.10;;;;;;5054050;28;20033;-73
2021/09/14 00:27:23;;;;;;;9.60;4.78;;;17.50;78.10;;;;;;5053953;28;20501;-74
2021/09/14 00:29:48;;;;;;;6.20;4.60;;;17.50;78.20;;;;;;5053945;28;20037;-73
2021/09/14 00:32:14;;;;;;;7.38;5.25;;;17.50;78.20;;;;;;5053926;28;20029;-74
2021/09/14 00:34:40;;;;;;;6.82;4.95;;;17.40;78.10;;;;;;5053636;28;20037;-74
2021/09/14 00:37:05;;;;;;;7.88;4.70;;;17.40;79.00;;;;;;5053802;28;20378;-74
2021/09/14 00:39:31;;;;;;;6.15;4.70;;;17.40;78.10;;;;;;5053734;28;20103;-73
2021/09/14 00:41:57;;;;;;;6.43;4.68;;;17.40;78.20;;;;;;5053768;28;20021;-73
2021/09/14 00:44:22;;;;;;;5.88;4.25;;;17.40;78.00;;;;;;5053673;28;20031;-74
2021/09/14 00:46:48;;;;;;;4.97;4.13;;;17.40;77.90;;;;;;5053629;28;20470;-73
2021/09/14 00:49:14;;;;;;;8.68;5.05;;;17.50;77.90;;;;;;5053459;28;20026;-74
2021/09/14 00:51:41;;;;;;;9.23;5.05;;;17.40;78.00;;;;;;5053592;28;20567;-74
2021/09/14 00:54:15;;;;;;;12.43;5.38;;;17.30;78.10;;;;;;5053453;28;20027;-74
2021/09/14 00:56:41;;;;;;;8.30;5.18;;;17.30;78.10;;;;;;5053487;28;20480;-74
2021/09/14 00:59:07;;;;;;;6.90;4.97;;;17.30;78.10;;;;;;5053387;28;20057;-74
2021/09/14 01:01:33;;;;;;;5.85;4.38;;;17.30;78.00;;;;;;5053177;28;20092;-74
2021/09/14 01:03:59;;;;;;;7.43;4.93;;;17.30;77.90;;;;;;5053299;28;20025;-74
2021/09/14 01:06:24;;;;;;;5.85;4.40;;;17.30;77.60;;;;;;5053384;28;20458;-73
2021/09/14 01:08:51;;;;;;;6.63;4.63;;;17.30;77.40;;;;;;5053508;28;20476;-74
2021/09/14 01:11:17;;;;;;;8.02;4.65;;;17.30;77.50;;;;;;5053233;28;20035;-73
2021/09/14 01:13:42;;;;;;;5.32;4.55;;;17.30;77.40;;;;;;5053251;28;20025;-74
2021/09/14 01:16:12;;;;;;;6.35;4.28;;;17.30;77.30;;;;;;5053040;28;20370;-73
2021/09/14 01:18:38;;;;;;;7.65;4.50;;;17.30;77.20;;;;;;5053065;28;20020;-74
2021/09/14 01:21:05;;;;;;;5.00;3.88;;;17.30;77.10;;;;;;5053068;28;20469;-73
2021/09/14 01:23:30;;;;;;;8.55;4.25;;;17.30;76.90;;;;;;5053029;28;20481;-74
2021/09/14 01:25:56;;;;;;;6.00;4.00;;;17.30;77.00;;;;;;5052986;28;20068;-75
2021/09/14 01:28:22;;;;;;;4.65;4.10;;;17.40;76.90;;;;;;5053028;28;20168;-74
2021/09/14 01:30:48;;;;;;;5.40;4.30;;;17.30;77.20;;;;;;5053104;28;20025;-74
2021/09/14 01:33:15;;;;;;;5.72;4.47;;;17.20;77.10;;;;;;5052896;28;20025;-74
2021/09/14 01:35:41;;;;;;;6.07;4.45;;;17.20;77.10;;;;;;5052622;28;20044;-74
2021/09/14 01:38:07;;;;;;;5.93;4.70;;;17.20;77.40;;;;;;5052794;28;20331;-74
2021/09/14 01:40:32;;;;;;;5.93;4.15;;;17.10;77.70;;;;;;5052826;28;20059;-74
2021/09/14 01:42:58;;;;;;;7.13;4.78;;;17.10;77.90;;;;;;5052787;28;20098;-74
2021/09/14 01:45:24;;;;;;;7.10;4.47;;;17.00;77.70;;;;;;5052705;28;20109;-74
2021/09/14 01:47:49;;;;;;;5.25;4.13;;;17.00;77.80;;;;;;5052740;28;20473;-74
2021/09/14 01:50:16;;;;;;;4.53;4.13;;;17.00;77.80;;;;;;5052706;28;20100;-74
2021/09/14 01:52:42;;;;;;;6.93;4.32;;;17.00;77.70;;;;;;5052760;28;20028;-74
2021/09/14 01:55:11;;;;;;;6.38;4.30;;;17.10;77.60;;;;;;5052614;28;20095;-74
2021/09/14 01:57:41;;;;;;;6.45;4.22;;;17.10;77.10;;;;;;5052684;28;20071;-74
2021/09/14 02:00:25;;;;;;;7.60;4.30;;;17.10;77.00;;;;;;5052674;28;20492;-74
2021/09/14 02:30:12;;;;;;;5.80;3.85;;;17.10;75.40;;;;;;5056325;28;20547;-75
2021/09/14 02:43:09;;;;;;;5.88;4.60;;;17.20;74.10;;;;;;5056087;28;20036;-74
2021/09/14 02:56:44;;;;;;;6.50;3.58;;;17.10;74.20;;;;;;5055660;28;20071;-75
2021/09/14 02:59:10;;;;;;;3.67;3.30;;;17.10;74.10;;;;;;5055611;28;20033;-75
2021/09/14 03:01:36;;;;;;;5.03;3.08;;;17.10;73.80;;;;;;5055603;28;20099;-76
2021/09/14 03:04:04;;;;;;;4.43;3.28;;;17.20;73.50;;;;;;5055486;28;20055;-75
2021/09/14 03:06:30;;;;;;;6.85;3.40;;;17.20;73.30;;;;;;5055443;28;20029;-75
2021/09/14 03:08:55;;;;;;;5.32;3.25;;;17.30;73.10;;;;;;5055422;28;20031;-75
2021/09/14 03:11:21;;;;;;;5.80;3.38;;;17.30;72.60;;;;;;5055375;28;20454;-75
2021/09/14 03:13:47;;;;;;;4.93;3.65;;;17.30;72.50;;;;;;5055444;28;20028;-75
2021/09/14 03:16:13;;;;;;;5.85;4.00;;;17.30;72.60;;;;;;5055243;28;20370;-76
2021/09/14 03:18:39;;;;;;;7.57;3.17;;;17.40;73.40;;;;;;5055596;28;20483;-75
2021/09/14 03:21:07;;;;;;;4.63;3.63;;;17.30;73.40;;;;;;5055201;28;20104;-75
2021/09/14 03:23:34;;;;;;;4.97;3.90;;;17.30;73.10;;;;;;5055230;28;20075;-75
2021/09/14 03:26:00;;;;;;;6.43;3.78;;;17.20;73.40;;;;;;5054955;28;20025;-74
2021/09/14 03:28:27;;;;;;;5.43;4.28;;;17.10;73.80;;;;;;5055068;28;20106;-75
2021/09/14 03:30:52;;;;;;;7.10;5.07;;;17.00;74.10;;;;;;5037462;28;20473;-75
2021/09/14 03:33:18;;;;;;;6.30;4.97;;;17.00;74.30;;;;;;5054853;28;20021;-75
2021/09/14 03:35:44;;;;;;;5.95;4.53;;;16.90;74.90;;;;;;5054678;28;20045;-74
2021/09/14 03:38:11;;;;;;;6.45;4.70;;;16.80;74.90;;;;;;5054924;28;20378;-75
2021/09/14 03:40:39;;;;;;;8.57;4.20;;;16.80;75.00;;;;;;5054817;28;20079;-74
2021/09/14 03:43:04;;;;;;;6.07;4.43;;;16.80;75.00;;;;;;5054858;28;20103;-75
2021/09/14 03:45:30;;;;;;;6.38;5.07;;;16.90;75.20;;;;;;5054781;28;20067;-75
2021/09/14 03:47:55;;;;;;;6.38;4.28;;;16.90;75.00;;;;;;5054607;28;20530;-75
2021/09/14 03:50:21;;;;;;;4.13;3.70;;;16.90;75.00;;;;;;5054597;28;20497;-75
2021/09/14 03:52:47;;;;;;;5.57;3.88;;;16.90;74.90;;;;;;5054573;28;20409;-74
2021/09/14 03:55:12;;;;;;;5.55;4.35;;;16.90;74.90;;;;;;5054433;28;20033;-74
2021/09/14 03:57:38;;;;;;;6.15;4.57;;;17.00;74.90;;;;;;5054441;28;20485;-75
2021/09/14 04:00:05;;;;;;;5.03;4.03;;;16.90;75.10;;;;;;5054346;28;20427;-74
2021/09/14 04:10:44;;;;;;;7.35;4.18;;;16.70;75.50;;;;;;5054394;28;20083;-75
2021/09/14 04:13:11;;;;;;;5.15;3.85;;;16.70;75.80;;;;;;5053983;28;20060;-74
2021/09/14 04:15:37;;;;;;;7.60;4.78;;;16.70;76.10;;;;;;5054156;28;20476;-75
2021/09/14 04:18:03;;;;;;;5.72;3.92;;;16.60;76.40;;;;;;5054108;28;20099;-75
2021/09/14 04:20:30;;;;;;;8.38;4.35;;;16.60;76.40;;;;;;5054074;28;20029;-75
2021/09/14 04:22:55;;;;;;;5.85;4.25;;;16.60;76.50;;;;;;5053955;28;20022;-75
2021/09/14 04:25:21;;;;;;;6.55;4.40;;;16.60;76.40;;;;;;5053986;28;20025;-75
2021/09/14 04:27:49;;;;;;;4.70;4.18;;;16.70;76.50;;;;;;5053825;28;20067;-75
2021/09/14 04:30:15;;;;;;;6.18;3.95;;;16.60;76.50;;;;;;5053753;28;20119;-75
2021/09/14 04:32:40;;;;;;;6.25;4.10;;;16.60;76.60;;;;;;5053699;28;20025;-74
2021/09/14 04:35:06;;;;;;;8.10;4.05;;;16.60;76.60;;;;;;5053502;28;20053;-74
2021/09/14 04:37:32;;;;;;;4.82;3.85;;;16.60;77.00;;;;;;5053104;28;20184;-75
2021/09/14 04:39:57;;;;;;;4.15;3.70;;;16.50;76.80;;;;;;5053719;28;20025;-75
2021/09/14 04:42:23;;;;;;;7.90;4.65;;;16.50;77.00;;;;;;5053347;28;20025;-75
2021/09/14 04:44:48;;;;;;;4.95;3.80;;;16.40;77.20;;;;;;5058900;28;20020;-76
2021/09/14 04:47:14;;;;;;;8.27;4.75;;;16.40;77.40;;;;;;5053796;28;20082;-74
2021/09/14 04:49:40;;;;;;;7.25;4.25;;;16.50;77.40;;;;;;5053403;28;20051;-73
2021/09/14 04:52:06;;;;;;;5.65;3.75;;;16.40;77.40;;;;;;5053597;28;20025;-74
2021/09/14 04:54:36;;;;;;;4.32;3.92;;;16.40;77.50;;;;;;5053225;28;20083;-75
2021/09/14 04:57:03;;;;;;;5.55;4.22;;;16.50;77.60;;;;;;5053272;28;20025;-74
2021/09/14 04:59:29;;;;;;;4.72;3.78;;;16.40;77.60;;;;;;5053300;28;20013;-74
2021/09/14 05:01:55;;;;;;;4.53;3.58;;;16.40;77.70;;;;;;5053260;28;20025;-74
2021/09/14 05:04:20;;;;;;;7.70;4.07;;;16.40;77.90;;;;;;5053245;28;20029;-74
2021/09/14 05:06:46;;;;;;;4.95;4.13;;;16.40;77.90;;;;;;5052973;28;20078;-74
2021/09/14 05:09:12;;;;;;;4.75;3.90;;;16.40;77.90;;;;;;5053028;28;20500;-74
2021/09/14 05:11:37;;;;;;;5.13;3.97;;;16.40;78.20;;;;;;5052855;28;20078;-74
2021/09/14 05:14:03;;;;;;;6.07;4.60;;;16.40;78.20;;;;;;5052742;28;20111;-74
2021/09/14 05:16:28;;;;;;;6.80;4.65;;;16.40;78.30;;;;;;5052859;28;20473;-74
2021/09/14 05:18:54;;;;;;;5.72;4.60;;;16.50;78.20;;;;;;5052563;28;20025;-74
2021/09/14 05:21:20;;;;;;;9.25;4.60;;;16.50;78.30;;;;;;5052825;28;20057;-75
2021/09/14 05:23:45;;;;;;;4.10;3.67;;;16.50;78.30;;;;;;5052632;28;20017;-75
2021/09/14 05:26:12;;;;;;;8.50;5.18;;;16.50;78.00;;;;;;5052173;28;20503;-75
2021/09/14 05:28:38;;;;;;;5.28;4.22;;;16.50;78.00;;;;;;5034409;28;20028;-74
2021/09/14 05:31:06;;;;;;;9.07;4.43;;;16.60;78.00;;;;;;5051860;28;20021;-74
2021/09/14 05:33:33;;;;;;;6.25;4.50;;;16.60;78.00;;;;;;5052105;28;20405;-74
2021/09/14 05:36:00;;;;;;;5.30;4.53;;;16.70;77.90;;;;;;5051715;28;20048;-74
2021/09/14 05:38:26;;;;;;;5.50;4.43;;;16.70;78.00;;;;;;5052311;28;20025;-75
2021/09/14 05:40:54;;;;;;;8.88;4.55;;;16.70;77.80;;;;;;5052650;28;20021;-74
2021/09/14 05:43:21;;;;;;;7.05;4.70;;;16.80;77.60;;;;;;5052442;28;20029;-74
2021/09/14 05:45:47;;;;;;;7.90;4.75;;;16.80;77.20;;;;;;5052569;28;20028;-74
2021/09/14 05:48:13;;;;;;;9.68;4.22;;;16.80;77.20;;;;;;5052517;28;20021;-74
2021/09/14 05:50:39;;;;;;;6.55;4.68;;;16.90;77.30;;;;;;5056065;28;20024;-74
2021/09/14 05:53:04;;;;;;;8.25;4.53;;;16.90;77.00;;;;;;5056444;28;20029;-75
2021/09/14 05:55:30;;;;;;;6.22;4.45;;;17.00;76.80;;;;;;5056302;28;20037;-74
2021/09/14 05:57:56;;;;;;;9.02;4.72;;;17.00;76.70;;;;;;5056196;28;20017;-74
2021/09/14 06:00:22;;;;;;;6.22;4.63;;;17.10;76.70;;;;;;5056236;28;20039;-74
2021/09/14 06:02:48;;;;;;;7.90;4.18;;;17.10;76.40;;;;;;5056311;28;20017;-75
2021/09/14 06:05:14;;;;;;;8.23;4.85;;;17.20;76.40;;;;;;5056589;28;20079;-74
2021/09/14 06:07:39;;;;;;;8.50;4.47;;;17.20;76.10;;;;;;5056214;28;20427;-74
2021/09/14 06:10:06;;;;;;;10.48;4.78;;;17.30;76.00;;;;;;5056348;28;20048;-74
2021/09/14 06:12:31;;;;;;;7.55;4.47;;;17.40;75.90;;;;;;5056265;28;20078;-75
2021/09/14 06:14:57;;;;;;;7.18;4.65;;;17.60;75.70;;;;;;5055679;28;20028;-74
2021/09/14 06:17:23;;;;;;;4.90;4.07;;;17.70;75.50;;;;;;5056054;28;20028;-74
2021/09/14 06:19:48;;;;;;;5.07;3.85;;;17.70;75.50;;;;;;5038286;28;20112;-74
2021/09/14 06:22:14;;;;;;;7.00;4.60;;;17.80;75.30;;;;;;5055737;28;20437;-74
2021/09/14 06:24:43;;;;;;;7.15;4.35;;;17.90;75.20;;;;;;5055961;28;20032;-74
2021/09/14 06:27:08;;;;;;;5.88;4.38;;;18.00;75.10;;;;;;5055973;28;20025;-74
2021/09/14 06:29:34;;;;;;;6.15;4.60;;;18.00;74.80;;;;;;5056142;28;20028;-75
2021/09/14 06:31:59;;;;;;;6.55;4.72;;;18.10;74.70;;;;;;5057845;28;20033;-74
2021/09/14 06:34:25;;;;;;;12.13;4.85;;;18.20;74.20;;;;;;5056257;28;20025;-74
2021/09/14 06:36:50;;;;;;;6.07;3.97;;;18.30;74.20;;;;;;5059179;28;20109;-74
2021/09/14 06:39:17;;;;;;;6.28;4.63;;;18.40;74.10;;;;;;5062218;28;20029;-75
2021/09/14 06:41:42;;;;;;;8.68;4.80;;;18.40;73.70;;;;;;5059958;28;20021;-73
2021/09/14 06:44:08;;;;;;;7.93;4.57;;;18.60;73.60;;;;;;5057974;28;20036;-74
2021/09/14 06:46:33;;;;;;;7.15;4.38;;;18.60;73.60;;;;;;5055729;28;20029;-74
2021/09/14 06:48:59;;;;;;;6.47;4.40;;;18.70;73.50;;;;;;5055683;28;20063;-74
2021/09/14 06:51:24;;;;;;;6.90;4.53;;;18.90;73.40;;;;;;5055782;28;20025;-75
2021/09/14 06:53:50;;;;;;;6.00;4.13;;;19.00;73.20;;;;;;5055356;28;20029;-74
2021/09/14 06:56:16;;;;;;;6.10;4.47;;;19.10;73.10;;;;;;5055518;28;20102;-73
2021/09/14 06:58:41;;;;;;;5.35;4.20;;;19.20;72.90;;;;;;5038088;28;20021;-74
2021/09/14 07:01:07;;;;;;;6.72;4.30;;;19.40;72.80;;;;;;5054867;28;20079;-74
2021/09/14 07:03:33;;;;;;;8.38;4.53;;;19.50;72.50;;;;;;5055200;28;20033;-73
2021/09/14 07:05:59;;;;;;;9.25;4.53;;;19.60;72.80;;;;;;5055194;28;20032;-76
2021/09/14 07:08:24;;;;;;;9.02;4.60;;;19.70;71.70;;;;;;5055141;28;20477;-76
2021/09/14 07:10:50;;;;;;;8.40;4.18;;;19.80;71.40;;;;;;5055299;28;20056;-76
2021/09/14 07:13:15;;;;;;;8.60;4.57;;;19.90;71.30;;;;;;5055149;28;20492;-75
2021/09/14 07:15:41;;;;;;;6.38;4.40;;;19.90;71.20;;;;;;5055325;28;20033;-76
2021/09/14 07:18:07;;;;;;;8.73;4.47;;;19.90;70.80;;;;;;5055286;28;20013;-76
2021/09/14 07:20:33;;;;;;;8.90;4.90;;;20.00;70.90;;;;;;5055398;28;20032;-74
2021/09/14 07:22:59;;;;;;;6.03;4.22;;;20.10;71.10;;;;;;5054979;28;20028;-76
2021/09/14 07:25:26;;;;;;;9.07;4.53;;;20.20;70.80;;;;;;5055091;28;20373;-73
2021/09/14 07:27:51;;;;;;;7.45;4.15;;;20.20;70.40;;;;;;5055158;28;20025;-73
2021/09/14 07:30:17;;;;;;;6.45;4.68;;;20.30;70.50;;;;;;5054931;28;20033;-73
2021/09/14 07:32:42;;;;;;;5.60;4.75;;;20.40;70.20;;;;;;5055039;28;20477;-73
2021/09/14 07:35:09;;;;;;;5.60;4.35;;;20.50;70.10;;;;;;5054610;28;20049;-73
2021/09/14 07:37:34;;;;;;;7.32;3.67;;;20.60;69.90;;;;;;5055114;28;20076;-74
2021/09/14 07:40:00;;;;;;;6.60;4.68;;;20.80;69.80;;;;;;5054654;28;20029;-73
2021/09/14 07:42:26;;;;;;;5.95;4.40;;;21.00;69.50;;;;;;5054454;28;20021;-74
2021/09/14 07:44:51;;;;;;;8.48;4.57;;;21.10;69.00;;;;;;5054531;28;20086;-74
2021/09/14 07:47:18;;;;;;;5.55;4.50;;;21.20;68.50;;;;;;5054490;28;20017;-74
2021/09/14 07:49:45;;;;;;;6.38;4.80;;;21.40;68.20;;;;;;5054409;28;20031;-74
2021/09/14 07:52:12;;;;;;;4.95;3.97;;;21.50;67.80;;;;;;5036377;28;20049;-74
2021/09/14 07:54:38;;;;;;;5.72;3.92;;;21.60;67.80;;;;;;5054217;28;20078;-74
2021/09/14 07:57:04;;;;;;;5.47;4.20;;;21.70;67.10;;;;;;5054368;28;20107;-73
2021/09/14 07:59:30;;;;;;;9.38;4.38;;;21.80;66.00;;;;;;5054319;28;20037;-74
2021/09/14 08:01:56;;;;;;;8.50;4.30;;;21.80;65.70;;;;;;5054195;28;20190;-75
2021/09/14 08:04:22;;;;;;;5.15;4.15;;;22.00;65.60;;;;;;5053924;28;20557;-73
2021/09/14 08:06:47;;;;;;;6.85;4.45;;;22.10;65.60;;;;;;5054236;28;20037;-73
2021/09/14 08:09:13;;;;;;;10.20;4.78;;;22.20;65.50;;;;;;5054229;28;20032;-73
2021/09/14 08:11:39;;;;;;;5.57;4.18;;;22.20;65.50;;;;;;5053251;28;20028;-74
2021/09/14 08:14:04;;;;;;;5.18;4.00;;;22.40;65.60;;;;;;5053814;28;20492;-74
2021/09/14 08:16:30;;;;;;;5.40;3.80;;;22.50;64.90;;;;;;5053962;28;20036;-75
2021/09/14 08:18:56;;;;;;;5.57;4.00;;;22.70;63.90;;;;;;5054074;28;20025;-74
2021/09/14 08:21:23;;;;;;;8.00;3.90;;;22.90;62.50;;;;;;5053872;28;20044;-77
2021/09/14 08:23:49;;;;;;;4.32;3.65;;;23.10;61.10;;;;;;5053778;28;20024;-76
2021/09/14 08:26:14;;;;;;;7.75;3.70;;;23.20;60.20;;;;;;5053854;28;20024;-76
2021/09/14 08:28:40;;;;;;;7.20;3.90;;;23.30;61.00;;;;;;5053902;28;20147;-75
2021/09/14 08:31:06;;;;;;;6.95;3.50;;;23.50;60.50;;;;;;5053908;28;20476;-75
2021/09/14 08:33:31;;;;;;;4.57;3.60;;;23.60;59.70;;;;;;5053766;28;20408;-78
2021/09/14 08:35:57;;;;;;;4.75;3.60;;;23.70;58.40;;;;;;5053365;28;20524;-77
2021/09/14 08:38:22;;;;;;;5.88;3.72;;;23.70;57.60;;;;;;5053692;28;20096;-80
2021/09/14 08:40:48;;;;;;;5.38;3.85;;;23.90;58.00;;;;;;5053408;28;20029;-81
2021/09/14 08:43:15;;;;;;;5.18;3.58;;;24.10;56.60;;;;;;5053447;28;20021;-80
2021/09/14 08:45:41;;;;;;;6.30;3.67;;;24.30;55.50;;;;;;5053675;28;20101;-81
2021/09/14 08:48:08;;;;;;;5.82;3.65;;;24.30;55.10;;;;;;5055683;28;20045;-80
2021/09/14 08:50:33;;;;;;;4.15;3.40;;;24.40;54.80;;;;;;5057771;28;20032;-81
2021/09/14 08:52:59;;;;;;;4.78;3.38;;;24.50;54.30;;;;;;5054477;28;20017;-80
2021/09/14 08:55:25;;;;;;;3.72;3.13;;;24.70;53.40;;;;;;5053345;28;20092;-81
2021/09/14 08:57:54;;;;;;;5.32;3.58;;;24.80;53.00;;;;;;5053312;28;20036;-80
2021/09/14 09:00:38;;;;;;;6.03;3.63;;;24.80;52.50;;;;;;5035147;28;20432;-80
2021/09/14 09:03:04;;;;;;;4.10;3.15;;;24.80;52.30;;;;;;5052904;28;20021;-81
2021/09/14 09:05:35;;;;;;;7.55;3.75;;;24.90;51.70;;;;;;5053016;28;20425;-80
2021/09/14 09:08:01;;;;;;;4.60;3.30;;;24.80;49.70;;;;;;5053084;28;20025;-80
2021/09/14 09:10:30;;;;;;;7.13;3.67;;;24.80;50.30;;;;;;5053057;28;20017;-80
2021/09/14 09:12:57;;;;;;;5.70;3.88;;;24.90;51.30;;;;;;5052816;28;20057;-81
2021/09/14 09:15:29;;;;;;;5.47;2.95;;;24.90;52.00;;;;;;5052683;28;20036;-81
2021/09/14 09:18:12;;;;;;;5.57;3.20;;;25.10;50.00;;;;;;5052645;28;20147;-81
2021/09/14 09:20:43;;;;;;;3.40;3.10;;;25.20;49.00;;;;;;5052751;28;20048;-80
2021/09/14 09:23:17;;;;;;;5.35;3.47;;;25.10;47.80;;;;;;5052328;28;20122;-79
2021/09/14 09:25:43;;;;;;;5.13;3.35;;;25.20;47.70;;;;;;5052945;28;20099;-79
2021/09/14 09:28:28;;;;;;;4.07;2.90;;;25.10;47.50;;;;;;5052514;28;20465;-79
2021/09/14 09:31:08;;;;;;;5.90;2.95;;;25.10;48.30;;;;;;5052296;28;20090;-79
2021/09/14 09:33:34;;;;;;;5.03;3.13;;;25.10;48.40;;;;;;5052632;28;20369;-79
2021/09/14 09:36:05;;;;;;;4.65;3.20;;;25.00;48.60;;;;;;5052187;28;20048;-78
2021/09/14 09:38:32;;;;;;;5.35;3.55;;;25.10;48.00;;;;;;5052599;28;20095;-78
2021/09/14 09:40:57;;;;;;;5.40;2.85;;;25.20;48.80;;;;;;5052612;28;20547;-79
2021/09/14 09:43:28;;;;;;;6.78;2.97;;;25.20;46.00;;;;;;5052610;28;20025;-78
2021/09/14 09:46:07;;;;;;;3.42;2.88;;;25.30;44.60;;;;;;5052421;28;20057;-79
2021/09/14 09:48:34;;;;;;;3.38;2.88;;;25.40;45.50;;;;;;5052471;28;20017;-78
2021/09/14 09:51:00;;;;;;;5.28;2.72;;;25.40;46.20;;;;;;5052342;28;20079;-78
2021/09/14 09:53:25;;;;;;;4.53;3.45;;;25.50;46.50;;;;;;5052469;28;20028;-78
2021/09/14 09:55:51;;;;;;;8.15;3.08;;;25.50;44.90;;;;;;5052312;28;20067;-78
2021/09/14 09:58:17;;;;;;;4.55;3.17;;;25.50;44.30;;;;;;5052286;28;20053;-79
2021/09/14 10:00:56;;;;;;;4.10;2.97;;;25.70;43.60;;;;;;5052144;28;20299;-78
2021/09/14 10:03:26;;;;;;;3.60;2.97;;;25.80;42.40;;;;;;5052210;28;20040;-78
2021/09/14 10:05:55;;;;;;;3.53;2.63;;;25.90;42.30;;;;;;5051897;28;20019;-78
2021/09/14 10:08:23;;;;;;;4.55;2.85;;;25.80;42.20;;;;;;5051870;28;20029;-78
2021/09/14 10:10:57;;;;;;;3.22;2.72;;;25.80;41.50;;;;;;5052171;28;20022;-79
2021/09/14 10:13:40;;;;;;;4.50;2.47;;;26.00;42.40;;;;;;5053173;28;20100;-79
2021/09/14 10:16:08;;;;;;;5.30;2.47;;;26.00;42.70;;;;;;5055932;28;20033;-78
2021/09/14 10:18:34;;;;;;;3.95;2.70;;;26.10;42.70;;;;;;5074974;28;20021;-78
2021/09/14 10:21:02;;;;;;;5.57;2.97;;;26.30;41.70;;;;;;5063979;28;20067;-79
2021/09/14 10:23:38;;;;;;;8.80;2.97;;;26.50;41.60;;;;;;5052228;28;20041;-78
2021/09/14 10:26:09;;;;;;;3.35;2.88;;;26.60;40.00;;;;;;5052187;28;20025;-79
2021/09/14 10:28:47;;;;;;;3.35;2.58;;;26.70;40.30;;;;;;5052075;28;20029;-79
2021/09/14 10:31:24;;;;;;;5.25;2.67;;;27.00;40.20;;;;;;5052078;28;20025;-79
2021/09/14 10:34:07;;;;;;;5.15;3.28;;;26.90;40.10;;;;;;5052194;28;20071;-78
2021/09/14 10:36:34;;;;;;;3.30;3.00;;;26.90;41.00;;;;;;5055310;28;20041;-79
2021/09/14 10:39:01;;;;;;;4.65;2.72;;;27.10;41.90;;;;;;5055833;28;20047;-79
2021/09/14 10:41:40;;;;;;;3.28;2.42;;;27.40;40.00;;;;;;5055892;28;20036;-79
2021/09/14 10:44:09;;;;;;;7.95;3.08;;;27.50;40.10;;;;;;5055689;28;20029;-80
2021/09/14 10:46:36;;;;;;;7.10;2.70;;;27.80;39.30;;;;;;5055497;28;20033;-79
2021/09/14 10:49:13;;;;;;;6.45;3.38;;;28.00;39.60;;;;;;5054889;28;20074;-80
2021/09/14 10:51:39;;;;;;;4.38;2.83;;;28.10;39.50;;;;;;5055749;28;20032;-79
2021/09/14 10:54:05;;;;;;;5.18;2.95;;;28.50;39.20;;;;;;5056283;28;20389;-79
2021/09/14 10:56:31;;;;;;;5.07;2.70;;;28.60;38.70;;;;;;5068267;28;20080;-79
2021/09/14 10:58:56;;;;;;;5.18;2.63;;;28.20;39.00;;;;;;5078837;28;20033;-78
2021/09/14 11:01:23;;;;;;;8.52;3.13;;;28.30;38.50;;;;;;5060830;28;20040;-79
2021/09/14 11:04:07;;;;;;;4.45;3.65;;;28.50;38.20;;;;;;5055411;28;20024;-79
2021/09/14 11:06:33;;;;;;;6.60;3.13;;;28.50;38.30;;;;;;5055024;28;20074;-79
2021/09/14 11:09:00;;;;;;;4.05;3.35;;;28.50;39.20;;;;;;5054884;28;20028;-79
2021/09/14 11:11:26;;;;;;;3.85;2.83;;;28.10;39.20;;;;;;5054886;28;20063;-79
2021/09/14 11:13:52;;;;;;;7.75;3.20;;;27.80;39.90;;;;;;5054998;28;20048;-79
2021/09/14 11:16:18;;;;;;;3.53;3.15;;;27.30;41.70;;;;;;5054696;28;20040;-79
2021/09/14 11:18:44;;;;;;;9.63;3.60;;;26.90;41.60;;;;;;5054802;28;20420;-79
2021/09/14 11:21:13;;;;;;;3.85;3.28;;;26.70;42.30;;;;;;5054664;28;20475;-79
2021/09/14 11:23:45;;;;;;;6.25;3.30;;;26.70;43.90;;;;;;5055066;28;20049;-79
2021/09/14 11:26:16;;;;;;;6.22;3.40;;;26.60;43.20;;;;;;5055008;28;20036;-79
2021/09/14 11:28:54;;;;;;;4.55;3.45;;;26.50;44.20;;;;;;5054666;28;20047;-80
2021/09/14 11:31:20;;;;;;;5.38;3.50;;;26.60;44.20;;;;;;5054842;28;20443;-80
2021/09/14 11:33:46;;;;;;;6.07;3.78;;;26.50;44.80;;;;;;5054727;28;20018;-80
2021/09/14 11:36:12;;;;;;;8.55;3.70;;;26.10;45.50;;;;;;5054358;28;20513;-80
2021/09/14 11:38:38;;;;;;;3.28;2.97;;;26.10;46.50;;;;;;5054688;28;20021;-80
2021/09/14 11:41:10;;;;;;;4.50;3.70;;;26.10;46.10;;;;;;5054586;28;20029;-80
2021/09/14 11:43:37;;;;;;;3.53;3.10;;;26.10;46.40;;;;;;5054640;28;20017;-80
2021/09/14 11:46:17;;;;;;;5.72;3.53;;;26.00;46.10;;;;;;5036802;28;20496;-80
2021/09/14 11:48:54;;;;;;;5.65;3.63;;;25.90;45.90;;;;;;5054571;28;20024;-80
2021/09/14 11:51:19;;;;;;;8.80;3.40;;;25.90;46.30;;;;;;5054526;28;20100;-80
2021/09/14 11:53:50;;;;;;;3.47;3.00;;;26.00;46.50;;;;;;5054515;28;20147;-79
2021/09/14 11:56:19;;;;;;;3.60;3.30;;;26.10;46.20;;;;;;5054323;28;20124;-79
2021/09/14 11:58:48;;;;;;;5.47;3.10;;;26.40;46.40;;;;;;5054373;28;20025;-79
2021/09/14 12:01:16;;;;;;;8.20;4.97;;;26.50;45.90;;;;;;5054354;28;20037;-79
2021/09/14 12:03:53;;;;;;;4.57;3.30;;;26.90;45.20;;;;;;5054211;28;20029;-79
2021/09/14 12:06:46;;;;;;;7.22;3.80;;;27.20;43.80;;;;;;5054025;28;20021;-79
2021/09/14 12:09:12;;;;;;;4.57;3.20;;;27.50;42.50;;;;;;5053807;28;20025;-81
2021/09/14 12:11:42;;;;;;;3.85;3.15;;;27.90;41.40;;;;;;5054163;28;20520;-81
2021/09/14 12:14:09;;;;;;;6.57;3.20;;;28.20;41.00;;;;;;5054145;28;20025;-81
2021/09/14 12:16:43;;;;;;;5.55;3.38;;;28.50;40.70;;;;;;5036062;28;20060;-81
2021/09/14 12:19:13;;;;;;;4.78;3.63;;;28.30;40.50;;;;;;5036346;28;20362;-81
2021/09/14 12:21:39;;;;;;;5.18;3.15;;;28.30;41.20;;;;;;5053788;28;20037;-82
2021/09/14 12:24:05;;;;;;;5.00;3.30;;;28.10;40.50;;;;;;5053929;28;20035;-82
2021/09/14 12:26:40;;;;;;;5.25;3.83;;;28.10;41.30;;;;;;5053831;28;20457;-81
2021/09/14 12:29:07;;;;;;;7.78;3.88;;;28.10;42.40;;;;;;5053823;28;20029;-82
2021/09/14 12:31:34;;;;;;;5.85;3.60;;;28.30;41.60;;;;;;5053731;28;20074;-82
2021/09/14 12:33:59;;;;;;;6.53;3.50;;;28.50;41.20;;;;;;5053701;28;20101;-83
2021/09/14 12:36:25;;;;;;;4.10;3.38;;;28.80;39.90;;;;;;5053549;28;20098;-84
2021/09/14 12:38:51;;;;;;;4.68;2.95;;;29.50;39.60;;;;;;5053740;28;20025;-79
2021/09/14 12:41:18;;;;;;;4.03;3.22;;;29.90;37.90;;;;;;5035507;28;20021;-79
2021/09/14 12:43:45;;;;;;;4.68;3.22;;;30.30;37.50;;;;;;5053249;28;20094;-79
2021/09/14 12:46:10;;;;;;;7.03;3.47;;;30.80;35.80;;;;;;5053329;28;20040;-76
2021/09/14 12:48:36;;;;;;;4.70;3.17;;;30.40;36.10;;;;;;5053520;28;20082;-77
2021/09/14 12:51:02;;;;;;;9.02;3.35;;;29.70;37.00;;;;;;5053153;28;20021;-78
2021/09/14 12:53:29;;;;;;;3.00;2.58;;;29.50;37.10;;;;;;5053340;28;20021;-77
2021/09/14 12:55:55;;;;;;;5.45;2.80;;;29.80;37.20;;;;;;5053247;28;20029;-78
2021/09/14 12:58:21;;;;;;;6.43;3.00;;;30.50;36.20;;;;;;5052699;28;20045;-78
2021/09/14 13:00:46;;;;;;;8.32;3.25;;;31.00;36.20;;;;;;5052889;28;20067;-78
2021/09/14 13:03:14;;;;;;;5.97;3.15;;;31.10;35.40;;;;;;5052740;28;20108;-77
2021/09/14 13:05:41;;;;;;;5.20;2.83;;;31.40;33.90;;;;;;5053016;28;20028;-75
2021/09/14 13:08:06;;;;;;;4.63;3.47;;;31.10;33.80;;;;;;5052691;28;20461;-78
2021/09/14 13:10:33;;;;;;;5.53;2.95;;;30.80;34.00;;;;;;5053112;28;20028;-78
2021/09/14 13:18:29;;;;;;;9.50;3.47;;;30.10;35.60;;;;;;5053201;28;20035;-78
2021/09/14 13:20:55;;;;;;;3.83;2.95;;;29.80;35.70;;;;;;5053026;28;20259;-78
2021/09/14 13:23:20;;;;;;;7.32;3.28;;;29.90;36.20;;;;;;5052824;28;20071;-79
2021/09/14 13:25:46;;;;;;;5.95;3.67;;;30.00;36.60;;;;;;5052730;28;20048;-78
2021/09/14 13:28:12;;;;;;;4.13;3.50;;;30.00;37.10;;;;;;5052785;28;20032;-79
2021/09/14 13:30:37;;;;;;;8.52;3.40;;;29.70;37.50;;;;;;5052990;28;20389;-79
2021/09/14 13:33:03;;;;;;;5.72;3.28;;;29.60;37.70;;;;;;5052838;28;20040;-79
2021/09/14 13:35:29;;;;;;;4.70;3.33;;;29.80;38.40;;;;;;5052910;28;20057;-79
2021/09/14 13:37:54;;;;;;;4.55;3.28;;;30.10;37.20;;;;;;5052785;28;20025;-79
2021/09/14 13:40:20;;;;;;;5.68;3.88;;;30.30;36.80;;;;;;5052825;28;20032;-80
2021/09/14 13:42:53;;;;;;;6.63;2.97;;;30.30;37.10;;;;;;5052718;28;20519;-78
2021/09/14 13:48:04;;;;;;;10.73;3.50;;;30.10;37.40;;;;;;5052817;28;20039;-78
2021/09/14 13:50:33;;;;;;;6.10;4.03;;;30.20;37.20;;;;;;5059720;28;20025;-78